Time;durP1;ratioP1;P1;durP2;ratioP2;P2;SDS_P1;SDS_P2;PMS_P1;PMS_P2;Temp;Humidity;BMP_temperature;BMP_pressure;BME280_temperature;BME280_humidity;BME280_pressure;Samples;Min_cycle;Max_cycle;Signal;HPM_P1;HPM_P2
2023/08/14 00:00:16;;;;;;;;;;;;;;;;;;6262886;28;19929;-59
2023/08/14 00:03:36;;;;;;;;;;;;;;;;;;6265736;28;19992;-53
2023/08/14 00:06:37;;;;;;;;;;;;;;;;;;6266105;28;19994;-58
2023/08/14 00:09:37;;;;;;;;;;;;;;;;;;6271108;28;20015;-54
2023/08/14 00:12:38;;;;;;;;;;;;;;;;;;6266426;28;19924;-52
2023/08/14 00:15:38;;;;;;;;;;;;;;;;;;6266632;28;19921;-50
2023/08/14 00:18:39;;;;;;;;;;;;;;;;;;6267325;28;19921;-52
2023/08/14 00:21:39;;;;;;;;;;;;;;;;;;6269935;28;19920;-53
2023/08/14 00:24:40;;;;;;;;;;;;;;;;;;6268018;28;19931;-56
2023/08/14 00:27:41;;;;;;;;;;;;;;;;;;6268405;28;19920;-53
2023/08/14 00:30:41;;;;;;;;;;;;;;;;;;6268490;28;19925;-50
2023/08/14 00:33:42;;;;;;;;;;;;;;;;;;6268313;28;20007;-56
2023/08/14 00:36:42;;;;;;;;;;;;;;;;;;6267921;28;19925;-55
2023/08/14 00:39:43;;;;;;;;;;;;;;;;;;6266514;28;20281;-51
2023/08/14 00:42:47;;;;;;;;;;;;;;;;;;6269753;28;19925;-54
2023/08/14 00:45:49;;;;;;;;;;;;;;;;;;6267918;28;20019;-55
2023/08/14 00:48:49;;;;;;;;;;;;;;;;;;6268307;28;19920;-54
2023/08/14 00:51:50;;;;;;;;;;;;;;;;;;6268217;28;19932;-57
2023/08/14 00:54:51;;;;;;;;;;;;;;;;;;6269102;28;19927;-53
2023/08/14 00:57:52;;;;;;;;;;;;;;;;;;6255218;28;20456;-51
2023/08/14 01:00:53;;;;;;;;;;;;;;;;;;6235959;28;19924;-54
2023/08/14 01:03:54;;;;;;;;;;;;;;;;;;6262327;28;19932;-53
2023/08/14 01:06:54;;;;;;;;;;;;;;;;;;6263639;28;19924;-60
2023/08/14 01:09:55;;;;;;;;;;;;;;;;;;6266201;28;19925;-57
2023/08/14 01:12:58;;;;;;;;;;;;;;;;;;6262501;28;19921;-58
2023/08/14 01:16:01;;;;;;;;;;;;;;;;;;6263396;28;19931;-57
2023/08/14 01:19:04;;;;;;;;;;;;;;;;;;6264661;28;19921;-60
2023/08/14 01:22:05;;;;;;;;;;;;;;;;;;6265488;28;19927;-58
2023/08/14 01:25:18;;;;;;;;;;;;;;;;;;6267917;28;19921;-59
2023/08/14 01:28:18;;;;;;;;;;;;;;;;;;6262645;28;19951;-52
2023/08/14 01:31:19;;;;;;;;;;;;;;;;;;6266488;28;20371;-51
2023/08/14 01:34:19;;;;;;;;;;;;;;;;;;6261919;28;19924;-52
2023/08/14 01:37:32;;;;;;;;;;;;;;;;;;6263889;28;19974;-53
2023/08/14 01:40:49;;;;;;;;;;;;;;;;;;6262261;28;19924;-52
2023/08/14 01:43:50;;;;;;;;;;;;;;;;;;6264982;28;19931;-60
2023/08/14 01:46:52;;;;;;;;;;;;;;;;;;6263950;28;19921;-55
2023/08/14 01:49:53;;;;;;;;;;;;;;;;;;6265669;28;19927;-57
2023/08/14 01:52:54;;;;;;;;;;;;;;;;;;6243766;28;19925;-57
2023/08/14 01:55:55;;;;;;;;;;;;;;;;;;6267057;28;19925;-59
2023/08/14 01:58:55;;;;;;;;;;;;;;;;;;6263715;28;19924;-58
2023/08/14 02:01:56;;;;;;;;;;;;;;;;;;6266667;28;20279;-55
2023/08/14 02:04:56;;;;;;;;;;;;;;;;;;6264232;28;19921;-58
2023/08/14 02:07:57;;;;;;;;;;;;;;;;;;6266234;28;19931;-58
2023/08/14 02:10:57;;;;;;;;;;;;;;;;;;6263393;28;19921;-55
2023/08/14 02:13:58;;;;;;;;;;;;;;;;;;6266479;28;19921;-56
2023/08/14 02:16:58;;;;;;;;;;;;;;;;;;6262265;28;19927;-56
2023/08/14 02:19:59;;;;;;;;;;;;;;;;;;6264540;28;19931;-57
2023/08/14 02:22:59;;;;;;;;;;;;;;;;;;6264530;28;19948;-50
2023/08/14 02:26:00;;;;;;;;;;;;;;;;;;6265691;28;19944;-56
2023/08/14 02:29:00;;;;;;;;;;;;;;;;;;6262302;28;19932;-54
2023/08/14 02:32:01;;;;;;;;;;;;;;;;;;6263410;28;19931;-56
2023/08/14 02:35:03;;;;;;;;;;;;;;;;;;6262205;28;20333;-55
2023/08/14 02:38:04;;;;;;;;;;;;;;;;;;6263158;28;20574;-55
2023/08/14 02:41:06;;;;;;;;;;;;;;;;;;6264057;28;19924;-53
2023/08/14 02:44:07;;;;;;;;;;;;;;;;;;6262304;28;19977;-50
2023/08/14 02:47:07;;;;;;;;;;;;;;;;;;6263040;28;19928;-53
2023/08/14 02:50:08;;;;;;;;;;;;;;;;;;6261189;28;19975;-55
2023/08/14 02:53:08;;;;;;;;;;;;;;;;;;6263372;28;19921;-53
2023/08/14 02:56:09;;;;;;;;;;;;;;;;;;6262754;28;19927;-51
2023/08/14 02:59:09;;;;;;;;;;;;;;;;;;6264604;28;20406;-51
2023/08/14 03:02:10;;;;;;;;;;;;;;;;;;6262828;28;20374;-50
2023/08/14 03:05:10;;;;;;;;;;;;;;;;;;6265291;28;19925;-52
2023/08/14 03:08:11;;;;;;;;;;;;;;;;;;6262594;28;19920;-53
2023/08/14 03:11:11;;;;;;;;;;;;;;;;;;6264617;28;19920;-50
2023/08/14 03:14:12;;;;;;;;;;;;;;;;;;6263102;28;19990;-50
2023/08/14 03:17:12;;;;;;;;;;;;;;;;;;6264825;28;20413;-51
2023/08/14 03:20:13;;;;;;;;;;;;;;;;;;6257974;28;19924;-51
2023/08/14 03:23:13;;;;;;;;;;;;;;;;;;6238941;28;19924;-51
2023/08/14 03:26:14;;;;;;;;;;;;;;;;;;6263703;28;20368;-50
2023/08/14 03:29:14;;;;;;;;;;;;;;;;;;6261863;28;19924;-50
2023/08/14 03:32:15;;;;;;;;;;;;;;;;;;6262214;28;19924;-52
2023/08/14 03:35:15;;;;;;;;;;;;;;;;;;6264709;28;19931;-52
2023/08/14 03:38:16;;;;;;;;;;;;;;;;;;6253584;28;19924;-51
2023/08/14 03:41:18;;;;;;;;;;;;;;;;;;6266104;28;19921;-51
2023/08/14 03:44:18;;;;;;;;;;;;;;;;;;6263310;28;19928;-50
2023/08/14 03:47:19;;;;;;;;;;;;;;;;;;6250140;28;19924;-51
2023/08/14 03:50:19;;;;;;;;;;;;;;;;;;6261330;28;19928;-52
2023/08/14 03:53:20;;;;;;;;;;;;;;;;;;6267035;28;19920;-54
2023/08/14 03:56:21;;;;;;;;;;;;;;;;;;6264026;28;19925;-50
2023/08/14 03:59:21;;;;;;;;;;;;;;;;;;6263149;28;19930;-53
2023/08/14 04:02:22;;;;;;;;;;;;;;;;;;6261470;28;19927;-52
2023/08/14 04:05:22;;;;;;;;;;;;;;;;;;6260156;28;19929;-51
2023/08/14 04:08:23;;;;;;;;;;;;;;;;;;6265725;28;20007;-54
2023/08/14 04:11:24;;;;;;;;;;;;;;;;;;6263346;28;19920;-60
2023/08/14 04:14:25;;;;;;;;;;;;;;;;;;6263543;28;19927;-54
2023/08/14 04:17:25;;;;;;;;;;;;;;;;;;6265203;28;19920;-59
2023/08/14 04:20:26;;;;;;;;;;;;;;;;;;6263799;28;19921;-57
2023/08/14 04:23:26;;;;;;;;;;;;;;;;;;6264517;28;19955;-53
2023/08/14 04:26:27;;;;;;;;;;;;;;;;;;6262446;28;19935;-58
2023/08/14 04:29:27;;;;;;;;;;;;;;;;;;6263606;28;19935;-56
2023/08/14 04:32:28;;;;;;;;;;;;;;;;;;6272261;28;19924;-52
2023/08/14 04:35:28;;;;;;;;;;;;;;;;;;6289864;28;20329;-50
2023/08/14 04:38:29;;;;;;;;;;;;;;;;;;6266718;28;19921;-55
2023/08/14 04:41:29;;;;;;;;;;;;;;;;;;6264934;28;20291;-60
2023/08/14 04:44:30;;;;;;;;;;;;;;;;;;6262964;28;19920;-58
2023/08/14 04:47:30;;;;;;;;;;;;;;;;;;6263183;28;19928;-57
2023/08/14 04:50:31;;;;;;;;;;;;;;;;;;6268618;28;19920;-49
2023/08/14 04:53:31;;;;;;;;;;;;;;;;;;6265143;28;20697;-55
2023/08/14 04:56:32;;;;;;;;;;;;;;;;;;6265763;28;19929;-56
2023/08/14 04:59:33;;;;;;;;;;;;;;;;;;6263935;28;19925;-58
2023/08/14 05:02:33;;;;;;;;;;;;;;;;;;6267294;28;20410;-59
2023/08/14 05:05:34;;;;;;;;;;;;;;;;;;6266192;28;19970;-59
2023/08/14 05:08:34;;;;;;;;;;;;;;;;;;6269147;28;19921;-60
2023/08/14 05:11:35;;;;;;;;;;;;;;;;;;6267166;28;19921;-59
2023/08/14 05:14:35;;;;;;;;;;;;;;;;;;6265655;28;19927;-60
2023/08/14 05:17:36;;;;;;;;;;;;;;;;;;6265171;28;19927;-60
2023/08/14 05:20:37;;;;;;;;;;;;;;;;;;6247968;28;19928;-58
2023/08/14 05:23:37;;;;;;;;;;;;;;;;;;6268836;28;20314;-59
2023/08/14 05:26:38;;;;;;;;;;;;;;;;;;6268937;28;20290;-60
2023/08/14 05:29:38;;;;;;;;;;;;;;;;;;6264385;28;19950;-59
2023/08/14 05:32:39;;;;;;;;;;;;;;;;;;6269210;28;19924;-59
2023/08/14 05:35:40;;;;;;;;;;;;;;;;;;6268738;28;19964;-59
2023/08/14 05:38:43;;;;;;;;;;;;;;;;;;6264494;28;19966;-60
2023/08/14 05:41:44;;;;;;;;;;;;;;;;;;6265811;28;19947;-58
2023/08/14 05:44:45;;;;;;;;;;;;;;;;;;6269832;28;19925;-59
2023/08/14 05:47:45;;;;;;;;;;;;;;;;;;6267404;28;19970;-60
2023/08/14 05:50:46;;;;;;;;;;;;;;;;;;6268047;28;19921;-59
2023/08/14 05:53:46;;;;;;;;;;;;;;;;;;6269687;28;20371;-57
2023/08/14 05:56:47;;;;;;;;;;;;;;;;;;6268029;28;20514;-60
2023/08/14 05:59:48;;;;;;;;;;;;;;;;;;6264744;28;19928;-59
2023/08/14 06:02:48;;;;;;;;;;;;;;;;;;6268247;28;20591;-59
2023/08/14 06:05:49;;;;;;;;;;;;;;;;;;6269356;28;20838;-60
2023/08/14 06:08:49;;;;;;;;;;;;;;;;;;6265751;28;19931;-60
2023/08/14 06:11:50;;;;;;;;;;;;;;;;;;6268018;28;20642;-59
2023/08/14 06:14:50;;;;;;;;;;;;;;;;;;6267305;28;19924;-59
2023/08/14 06:17:51;;;;;;;;;;;;;;;;;;6266714;28;19924;-60
2023/08/14 06:20:52;;;;;;;;;;;;;;;;;;6268546;28;20487;-59
2023/08/14 06:23:52;;;;;;;;;;;;;;;;;;6265969;28;20337;-59
2023/08/14 06:26:53;;;;;;;;;;;;;;;;;;6268838;28;19924;-60
2023/08/14 06:29:54;;;;;;;;;;;;;;;;;;6266662;28;19925;-58
2023/08/14 06:32:54;;;;;;;;;;;;;;;;;;6267559;28;19946;-58
2023/08/14 06:35:55;;;;;;;;;;;;;;;;;;6267467;28;20256;-59
2023/08/14 06:38:55;;;;;;;;;;;;;;;;;;6265346;28;19932;-60
2023/08/14 06:41:56;;;;;;;;;;;;;;;;;;6267358;28;19921;-60
2023/08/14 06:44:57;;;;;;;;;;;;;;;;;;6268465;28;19931;-59
2023/08/14 06:47:57;;;;;;;;;;;;;;;;;;6265942;28;19931;-60
2023/08/14 06:50:59;;;;;;;;;;;;;;;;;;6266987;28;19921;-59
2023/08/14 06:53:59;;;;;;;;;;;;;;;;;;6267288;28;19927;-57
2023/08/14 06:57:01;;;;;;;;;;;;;;;;;;6267336;28;19920;-60
2023/08/14 07:00:04;;;;;;;;;;;;;;;;;;6265476;28;20077;-60
2023/08/14 07:03:04;;;;;;;;;;;;;;;;;;6266586;28;20054;-57
2023/08/14 07:06:05;;;;;;;;;;;;;;;;;;6267692;28;19924;-59
2023/08/14 07:09:05;;;;;;;;;;;;;;;;;;6264623;28;19920;-59
2023/08/14 07:12:06;;;;;;;;;;;;;;;;;;6265874;28;19920;-59
2023/08/14 07:15:09;;;;;;;;;;;;;;;;;;6265584;28;19936;-58
2023/08/14 07:18:10;;;;;;;;;;;;;;;;;;6265797;28;20007;-60
2023/08/14 07:21:10;;;;;;;;;;;;;;;;;;6249074;28;19920;-59
2023/08/14 07:24:12;;;;;;;;;;;;;;;;;;6263696;28;20367;-60
2023/08/14 07:27:13;;;;;;;;;;;;;;;;;;6267262;28;19928;-56
2023/08/14 07:30:14;;;;;;;;;;;;;;;;;;6264508;28;20418;-56
2023/08/14 07:33:15;;;;;;;;;;;;;;;;;;6264936;28;20390;-57
2023/08/14 07:36:15;;;;;;;;;;;;;;;;;;6265763;28;19925;-59
2023/08/14 07:39:16;;;;;;;;;;;;;;;;;;6264224;28;19925;-59
2023/08/14 07:42:16;;;;;;;;;;;;;;;;;;6266008;28;19936;-58
2023/08/14 07:45:17;;;;;;;;;;;;;;;;;;6267285;28;20027;-60
2023/08/14 07:48:18;;;;;;;;;;;;;;;;;;6261700;28;19921;-58
2023/08/14 07:51:19;;;;;;;;;;;;;;;;;;6266586;28;19927;-59
2023/08/14 07:54:20;;;;;;;;;;;;;;;;;;6264336;28;19921;-60
2023/08/14 07:57:20;;;;;;;;;;;;;;;;;;6263163;28;20047;-62
2023/08/14 08:00:21;;;;;;;;;;;;;;;;;;6265031;28;19921;-56
2023/08/14 08:03:21;;;;;;;;;;;;;;;;;;6267543;28;20355;-60
2023/08/14 08:06:22;;;;;;;;;;;;;;;;;;6245946;28;20474;-58
2023/08/14 08:09:23;;;;;;;;;;;;;;;;;;6264340;28;20279;-60
2023/08/14 08:12:23;;;;;;;;;;;;;;;;;;6267165;28;19921;-61
2023/08/14 08:15:24;;;;;;;;;;;;;;;;;;6263625;28;19927;-60
2023/08/14 08:18:24;;;;;;;;;;;;;;;;;;6263698;28;19932;-60
2023/08/14 08:21:25;;;;;;;;;;;;;;;;;;6264871;28;19932;-56
2023/08/14 08:24:26;;;;;;;;;;;;;;;;;;6268542;28;19924;-59
2023/08/14 08:27:26;;;;;;;;;;;;;;;;;;6268852;28;19924;-60
2023/08/14 08:30:27;;;;;;;;;;;;;;;;;;6266908;28;19929;-60
2023/08/14 08:33:27;;;;;;;;;;;;;;;;;;6268588;28;19929;-58
2023/08/14 08:36:27;;;;;;;;;;;;;;;;;;6269267;28;19967;-59
2023/08/14 08:39:28;;;;;;;;;;;;;;;;;;6264382;28;19936;-60
2023/08/14 08:42:29;;;;;;;;;;;;;;;;;;6265053;28;19966;-59
2023/08/14 08:45:31;;;;;;;;;;;;;;;;;;6266285;28;19948;-59
2023/08/14 08:48:34;;;;;;;;;;;;;;;;;;6262138;28;19963;-58
2023/08/14 08:51:35;;;;;;;;;;;;;;;;;;6265277;28;20019;-59
2023/08/14 08:54:36;;;;;;;;;;;;;;;;;;6264878;28;19928;-59
2023/08/14 08:57:38;;;;;;;;;;;;;;;;;;6264470;28;19932;-59
2023/08/14 09:00:39;;;;;;;;;;;;;;;;;;6266553;28;20307;-60
2023/08/14 09:03:39;;;;;;;;;;;;;;;;;;6264845;28;19920;-59
2023/08/14 09:06:40;;;;;;;;;;;;;;;;;;6265898;28;20353;-60
2023/08/14 09:09:41;;;;;;;;;;;;;;;;;;6266579;28;19929;-58
2023/08/14 09:12:42;;;;;;;;;;;;;;;;;;6268006;28;20384;-60
2023/08/14 09:15:43;;;;;;;;;;;;;;;;;;6265497;28;19944;-59
2023/08/14 09:18:44;;;;;;;;;;;;;;;;;;6262021;28;19970;-59
2023/08/14 09:21:45;;;;;;;;;;;;;;;;;;6264790;28;19935;-59
2023/08/14 09:24:47;;;;;;;;;;;;;;;;;;6248190;28;20311;-59
2023/08/14 09:27:48;;;;;;;;;;;;;;;;;;6267754;28;19925;-59
2023/08/14 09:30:48;;;;;;;;;;;;;;;;;;6265631;28;19921;-60
2023/08/14 09:33:49;;;;;;;;;;;;;;;;;;6268468;28;20268;-59
2023/08/14 09:36:49;;;;;;;;;;;;;;;;;;6268864;28;19925;-60
2023/08/14 09:40:06;;;;;;;;;;;;;;;;;;6264060;28;20286;-60
2023/08/14 09:43:07;;;;;;;;;;;;;;;;;;6267558;28;19932;-60
2023/08/14 09:46:10;;;;;;;;;;;;;;;;;;6265986;28;19966;-54
2023/08/14 09:49:10;;;;;;;;;;;;;;;;;;6267078;28;20023;-60
2023/08/14 09:52:11;;;;;;;;;;;;;;;;;;6265914;28;19924;-59
2023/08/14 09:55:13;;;;;;;;;;;;;;;;;;6268680;28;19921;-59
2023/08/14 09:58:14;;;;;;;;;;;;;;;;;;6269325;28;19929;-60
2023/08/14 10:01:18;;;;;;;;;;;;;;;;;;6265471;28;19929;-59
2023/08/14 10:04:18;;;;;;;;;;;;;;;;;;6267152;28;19942;-58
2023/08/14 10:07:20;;;;;;;;;;;;;;;;;;6269234;28;19928;-59
2023/08/14 10:10:21;;;;;;;;;;;;;;;;;;6265533;28;19927;-60
2023/08/14 10:13:23;;;;;;;;;;;;;;;;;;6267905;28;19932;-59
2023/08/14 10:16:26;;;;;;;;;;;;;;;;;;6267598;28;19925;-60
2023/08/14 10:19:28;;;;;;;;;;;;;;;;;;6266455;28;20697;-60
2023/08/14 10:22:28;;;;;;;;;;;;;;;;;;6264039;28;19990;-59
2023/08/14 10:25:29;;;;;;;;;;;;;;;;;;6266111;28;20283;-59
2023/08/14 10:28:30;;;;;;;;;;;;;;;;;;6256974;28;19925;-59
2023/08/14 10:31:31;;;;;;;;;;;;;;;;;;6264981;28;19920;-60
2023/08/14 10:34:32;;;;;;;;;;;;;;;;;;6267300;28;19928;-60
2023/08/14 10:37:40;;;;;;;;;;;;;;;;;;6265920;28;20011;-59
2023/08/14 10:40:50;;;;;;;;;;;;;;;;;;6261027;28;19927;-56
2023/08/14 10:43:56;;;;;;;;;;;;;;;;;;6264675;28;20480;-59
2023/08/14 10:47:06;;;;;;;;;;;;;;;;;;6263591;28;19966;-59
2023/08/14 10:50:13;;;;;;;;;;;;;;;;;;6264696;28;20635;-60
2023/08/14 10:53:14;;;;;;;;;;;;;;;;;;6266989;28;19921;-60
2023/08/14 10:56:15;;;;;;;;;;;;;;;;;;6265432;28;20382;-59
2023/08/14 10:59:23;;;;;;;;;;;;;;;;;;6265513;28;19947;-59
2023/08/14 11:02:29;;;;;;;;;;;;;;;;;;6264478;28;19921;-59
2023/08/14 11:05:39;;;;;;;;;;;;;;;;;;6267352;28;19971;-59
2023/08/14 11:08:44;;;;;;;;;;;;;;;;;;6266966;28;19931;-59
2023/08/14 11:11:47;;;;;;;;;;;;;;;;;;6263452;28;19921;-60
2023/08/14 11:14:48;;;;;;;;;;;;;;;;;;6264713;28;20310;-60
2023/08/14 11:17:48;;;;;;;;;;;;;;;;;;6266245;28;19921;-59
2023/08/14 11:20:49;;;;;;;;;;;;;;;;;;6265575;28;20371;-61
2023/08/14 11:23:50;;;;;;;;;;;;;;;;;;6264125;28;20276;-61
2023/08/14 11:26:51;;;;;;;;;;;;;;;;;;6266376;28;20254;-59
2023/08/14 11:29:51;;;;;;;;;;;;;;;;;;6263843;28;19935;-59
2023/08/14 11:32:52;;;;;;;;;;;;;;;;;;6241582;28;19921;-60
2023/08/14 11:35:53;;;;;;;;;;;;;;;;;;6258819;28;19927;-59
2023/08/14 11:38:54;;;;;;;;;;;;;;;;;;6265041;28;19921;-59
2023/08/14 11:41:54;;;;;;;;;;;;;;;;;;6265664;28;19921;-58
2023/08/14 11:44:55;;;;;;;;;;;;;;;;;;6266371;28;19928;-59
2023/08/14 11:47:56;;;;;;;;;;;;;;;;;;6265638;28;19920;-59
2023/08/14 11:50:58;;;;;;;;;;;;;;;;;;6264439;28;19925;-59
2023/08/14 11:54:02;;;;;;;;;;;;;;;;;;6265528;28;20372;-59
2023/08/14 11:57:03;;;;;;;;;;;;;;;;;;6264034;28;19928;-59
2023/08/14 12:00:10;;;;;;;;;;;;;;;;;;6250674;28;19924;-59
2023/08/14 12:03:11;;;;;;;;;;;;;;;;;;6268711;28;19924;-56
2023/08/14 12:06:12;;;;;;;;;;;;;;;;;;6268956;28;19969;-59
2023/08/14 12:09:12;;;;;;;;;;;;;;;;;;6269318;28;19925;-58
2023/08/14 12:12:13;;;;;;;;;;;;;;;;;;6266560;28;19924;-61
2023/08/14 12:15:19;;;;;;;;;;;;;;;;;;6267928;28;19947;-60
2023/08/14 12:18:24;;;;;;;;;;;;;;;;;;6268633;28;19927;-60
2023/08/14 12:21:26;;;;;;;;;;;;;;;;;;6270329;28;20344;-60
2023/08/14 12:24:27;;;;;;;;;;;;;;;;;;6265573;28;19920;-55
2023/08/14 12:27:27;;;;;;;;;;;;;;;;;;6268730;28;19925;-59
2023/08/14 12:30:28;;;;;;;;;;;;;;;;;;6267230;28;20319;-59
2023/08/14 12:33:28;;;;;;;;;;;;;;;;;;6266070;28;19927;-59
2023/08/14 12:36:29;;;;;;;;;;;;;;;;;;6240254;28;19931;-58
2023/08/14 12:39:29;;;;;;;;;;;;;;;;;;6244075;28;19947;-57
2023/08/14 12:42:30;;;;;;;;;;;;;;;;;;6245920;28;19924;-55
2023/08/14 12:45:30;;;;;;;;;;;;;;;;;;6243120;28;20319;-58
2023/08/14 12:48:31;;;;;;;;;;;;;;;;;;6245272;28;20405;-58
2023/08/14 12:51:33;;;;;;;;;;;;;;;;;;6233814;28;19930;-59
2023/08/14 12:54:34;;;;;;;;;;;;;;;;;;6227170;28;20917;-60
2023/08/14 12:57:34;;;;;;;;;;;;;;;;;;6243829;28;19940;-59
2023/08/14 13:00:35;;;;;;;;;;;;;;;;;;6240103;28;19929;-59
2023/08/14 13:03:35;;;;;;;;;;;;;;;;;;6245993;28;19928;-60
2023/08/14 13:06:37;;;;;;;;;;;;;;;;;;6236559;28;19925;-55
2023/08/14 13:09:37;;;;;;;;;;;;;;;;;;6228062;28;19924;-57
2023/08/14 13:12:38;;;;;;;;;;;;;;;;;;6244402;28;19931;-60
2023/08/14 13:15:38;;;;;;;;;;;;;;;;;;6241515;28;19929;-57
2023/08/14 13:18:39;;;;;;;;;;;;;;;;;;6246767;28;20389;-57
2023/08/14 13:21:39;;;;;;;;;;;;;;;;;;6242128;28;19962;-58
2023/08/14 13:24:40;;;;;;;;;;;;;;;;;;6233331;28;19925;-59
2023/08/14 13:27:40;;;;;;;;;;;;;;;;;;6242324;28;20367;-58
2023/08/14 13:30:41;;;;;;;;;;;;;;;;;;6245848;28;19924;-53
2023/08/14 13:33:41;;;;;;;;;;;;;;;;;;6245007;28;19924;-58
2023/08/14 13:36:42;;;;;;;;;;;;;;;;;;6240888;28;20374;-58
2023/08/14 13:39:43;;;;;;;;;;;;;;;;;;6226915;28;19924;-55
2023/08/14 13:42:44;;;;;;;;;;;;;;;;;;6243296;28;20349;-57
2023/08/14 13:45:44;;;;;;;;;;;;;;;;;;6227225;28;19924;-57
2023/08/14 13:48:45;;;;;;;;;;;;;;;;;;6228925;28;19929;-54
2023/08/14 13:51:46;;;;;;;;;;;;;;;;;;6242042;28;20015;-54
2023/08/14 13:54:47;;;;;;;;;;;;;;;;;;6239333;28;19936;-57
2023/08/14 13:57:47;;;;;;;;;;;;;;;;;;6241460;28;20281;-59
2023/08/14 14:00:48;;;;;;;;;;;;;;;;;;6244174;28;20507;-59
2023/08/14 14:03:48;;;;;;;;;;;;;;;;;;6242595;28;20597;-58
2023/08/14 14:06:49;;;;;;;;;;;;;;;;;;6237300;28;20403;-58
2023/08/14 14:09:49;;;;;;;;;;;;;;;;;;6231978;28;19928;-59
2023/08/14 14:12:50;;;;;;;;;;;;;;;;;;6244612;28;20340;-58
2023/08/14 14:15:50;;;;;;;;;;;;;;;;;;6228731;28;20011;-56
2023/08/14 14:18:51;;;;;;;;;;;;;;;;;;6236184;28;19929;-58
2023/08/14 14:21:52;;;;;;;;;;;;;;;;;;6231766;28;19943;-55
2023/08/14 14:24:53;;;;;;;;;;;;;;;;;;6239560;28;19928;-59
2023/08/14 14:27:54;;;;;;;;;;;;;;;;;;6239963;28;20406;-59
2023/08/14 14:30:54;;;;;;;;;;;;;;;;;;6241546;28;20300;-57
2023/08/14 14:33:54;;;;;;;;;;;;;;;;;;6240326;28;19929;-59
2023/08/14 14:36:55;;;;;;;;;;;;;;;;;;6238507;28;20556;-56
2023/08/14 14:39:55;;;;;;;;;;;;;;;;;;6244851;28;19928;-59
2023/08/14 14:42:57;;;;;;;;;;;;;;;;;;6232133;28;19928;-59
2023/08/14 14:45:58;;;;;;;;;;;;;;;;;;6221995;28;19928;-58
2023/08/14 14:48:58;;;;;;;;;;;;;;;;;;6241377;28;19945;-58
2023/08/14 14:51:59;;;;;;;;;;;;;;;;;;6244095;28;20269;-56
2023/08/14 14:55:00;;;;;;;;;;;;;;;;;;6244047;28;19920;-58
2023/08/14 14:58:00;;;;;;;;;;;;;;;;;;6246136;28;19928;-59
2023/08/14 15:01:01;;;;;;;;;;;;;;;;;;6245553;28;19935;-58
2023/08/14 15:04:02;;;;;;;;;;;;;;;;;;6241253;28;20351;-59
2023/08/14 15:07:02;;;;;;;;;;;;;;;;;;6228318;28;19959;-59
2023/08/14 15:10:03;;;;;;;;;;;;;;;;;;6237528;28;19924;-56
2023/08/14 15:13:04;;;;;;;;;;;;;;;;;;6245686;28;20392;-57
2023/08/14 15:16:04;;;;;;;;;;;;;;;;;;6250280;28;19950;-58
2023/08/14 15:19:05;;;;;;;;;;;;;;;;;;6245645;28;20391;-55
2023/08/14 15:22:05;;;;;;;;;;;;;;;;;;6251882;28;19925;-60
2023/08/14 15:25:07;;;;;;;;;;;;;;;;;;6253341;28;19929;-54
2023/08/14 15:28:07;;;;;;;;;;;;;;;;;;6254026;28;20612;-60
2023/08/14 15:31:08;;;;;;;;;;;;;;;;;;6248576;28;20054;-57
2023/08/14 15:34:08;;;;;;;;;;;;;;;;;;6253255;28;19928;-59
2023/08/14 15:37:09;;;;;;;;;;;;;;;;;;6253410;28;19924;-59
2023/08/14 15:40:10;;;;;;;;;;;;;;;;;;6253880;28;20356;-63
2023/08/14 15:43:11;;;;;;;;;;;;;;;;;;6251828;28;20002;-60
2023/08/14 15:46:11;;;;;;;;;;;;;;;;;;6246848;28;20367;-57
2023/08/14 15:49:12;;;;;;;;;;;;;;;;;;6242706;28;19920;-57
2023/08/14 15:52:16;;;;;;;;;;;;;;;;;;6244934;28;20350;-59
2023/08/14 15:55:17;;;;;;;;;;;;;;;;;;6242085;28;20027;-59
2023/08/14 15:58:17;;;;;;;;;;;;;;;;;;6244940;28;19936;-59
2023/08/14 16:01:18;;;;;;;;;;;;;;;;;;6243651;28;19932;-57
2023/08/14 16:04:18;;;;;;;;;;;;;;;;;;6240163;28;19925;-56
2023/08/14 16:07:19;;;;;;;;;;;;;;;;;;6240448;28;19967;-54
2023/08/14 16:10:19;;;;;;;;;;;;;;;;;;6242016;28;20839;-59
2023/08/14 16:13:20;;;;;;;;;;;;;;;;;;6246117;28;20823;-60
2023/08/14 16:16:21;;;;;;;;;;;;;;;;;;6233362;28;19931;-59
2023/08/14 16:19:21;;;;;;;;;;;;;;;;;;6222278;28;19987;-59
2023/08/14 16:22:22;;;;;;;;;;;;;;;;;;6240242;28;20645;-60
2023/08/14 16:25:22;;;;;;;;;;;;;;;;;;6233191;28;19951;-57
2023/08/14 16:28:23;;;;;;;;;;;;;;;;;;6224770;28;19983;-59
2023/08/14 16:31:23;;;;;;;;;;;;;;;;;;6228014;28;19943;-60
2023/08/14 16:34:24;;;;;;;;;;;;;;;;;;6237165;28;19928;-57
2023/08/14 16:37:24;;;;;;;;;;;;;;;;;;6237520;28;20031;-60
2023/08/14 16:40:25;;;;;;;;;;;;;;;;;;6234276;28;20450;-57
2023/08/14 16:43:25;;;;;;;;;;;;;;;;;;6237205;28;19930;-59
2023/08/14 16:46:26;;;;;;;;;;;;;;;;;;6245963;28;20386;-52
2023/08/14 16:49:27;;;;;;;;;;;;;;;;;;6257017;28;19929;-52
2023/08/14 16:52:27;;;;;;;;;;;;;;;;;;6252132;28;20145;-58
2023/08/14 16:55:28;;;;;;;;;;;;;;;;;;6243714;28;19983;-60
2023/08/14 16:58:28;;;;;;;;;;;;;;;;;;6232976;28;19936;-61
2023/08/14 17:01:29;;;;;;;;;;;;;;;;;;6250727;28;20011;-60
2023/08/14 17:04:29;;;;;;;;;;;;;;;;;;6246501;28;19933;-60
2023/08/14 17:07:30;;;;;;;;;;;;;;;;;;6250121;28;19928;-56
2023/08/14 17:10:34;;;;;;;;;;;;;;;;;;6242020;28;19952;-58
2023/08/14 17:13:35;;;;;;;;;;;;;;;;;;6246243;28;19935;-59
2023/08/14 17:16:35;;;;;;;;;;;;;;;;;;6236389;28;20865;-56
2023/08/14 17:19:36;;;;;;;;;;;;;;;;;;6248261;28;19929;-60
2023/08/14 17:22:39;;;;;;;;;;;;;;;;;;6248391;28;19928;-61
2023/08/14 17:25:40;;;;;;;;;;;;;;;;;;6248358;28;19935;-60
2023/08/14 17:28:40;;;;;;;;;;;;;;;;;;6248728;28;20447;-55
2023/08/14 17:31:41;;;;;;;;;;;;;;;;;;6247930;28;19944;-59
2023/08/14 17:34:41;;;;;;;;;;;;;;;;;;6244856;28;19925;-59
2023/08/14 17:37:42;;;;;;;;;;;;;;;;;;6244265;28;19951;-58
2023/08/14 17:40:43;;;;;;;;;;;;;;;;;;6243468;28;19925;-59
2023/08/14 17:43:43;;;;;;;;;;;;;;;;;;6238372;28;20019;-59
2023/08/14 17:46:44;;;;;;;;;;;;;;;;;;6246294;28;19929;-59
2023/08/14 17:49:44;;;;;;;;;;;;;;;;;;6244400;28;20378;-58
2023/08/14 17:52:45;;;;;;;;;;;;;;;;;;6246421;28;19920;-59
2023/08/14 17:55:45;;;;;;;;;;;;;;;;;;6238148;28;19924;-59
2023/08/14 17:58:46;;;;;;;;;;;;;;;;;;6248232;28;19929;-59
2023/08/14 18:01:47;;;;;;;;;;;;;;;;;;6247019;28;19960;-57
2023/08/14 18:04:47;;;;;;;;;;;;;;;;;;6241555;28;20480;-54
2023/08/14 18:07:48;;;;;;;;;;;;;;;;;;6244170;28;19929;-54
2023/08/14 18:10:48;;;;;;;;;;;;;;;;;;6244288;28;20563;-54
2023/08/14 18:13:49;;;;;;;;;;;;;;;;;;6242985;28;20731;-60
2023/08/14 18:16:49;;;;;;;;;;;;;;;;;;6249719;28;19933;-61
2023/08/14 18:19:50;;;;;;;;;;;;;;;;;;6245145;28;19929;-59
2023/08/14 18:22:50;;;;;;;;;;;;;;;;;;6250473;28;19932;-60
2023/08/14 18:25:52;;;;;;;;;;;;;;;;;;6250448;28;19933;-59
2023/08/14 18:28:52;;;;;;;;;;;;;;;;;;6248599;28;20679;-58
2023/08/14 18:31:53;;;;;;;;;;;;;;;;;;6251510;28;19924;-60
2023/08/14 18:34:53;;;;;;;;;;;;;;;;;;6245561;28;19924;-60
2023/08/14 18:37:56;;;;;;;;;;;;;;;;;;6247014;28;19924;-60
2023/08/14 18:40:57;;;;;;;;;;;;;;;;;;6251139;28;19974;-60
2023/08/14 18:43:58;;;;;;;;;;;;;;;;;;6254179;28;19931;-59
2023/08/14 18:46:58;;;;;;;;;;;;;;;;;;6252621;28;19929;-59
2023/08/14 18:49:59;;;;;;;;;;;;;;;;;;6251019;28;20273;-57
2023/08/14 18:52:59;;;;;;;;;;;;;;;;;;6254161;28;19933;-60
2023/08/14 18:56:00;;;;;;;;;;;;;;;;;;6247381;28;19932;-57
2023/08/14 18:59:01;;;;;;;;;;;;;;;;;;6251260;28;20446;-60
2023/08/14 19:02:02;;;;;;;;;;;;;;;;;;6255551;28;20314;-60
2023/08/14 19:05:03;;;;;;;;;;;;;;;;;;6251657;28;19935;-57
2023/08/14 19:08:05;;;;;;;;;;;;;;;;;;6249527;28;21616;-60
2023/08/14 19:11:05;;;;;;;;;;;;;;;;;;6250658;28;19928;-56
2023/08/14 19:14:06;;;;;;;;;;;;;;;;;;6247130;28;19975;-54
2023/08/14 19:17:06;;;;;;;;;;;;;;;;;;6248265;28;19932;-56
2023/08/14 19:20:09;;;;;;;;;;;;;;;;;;6257001;28;19952;-56
2023/08/14 19:23:09;;;;;;;;;;;;;;;;;;6250633;28;21434;-58
2023/08/14 19:26:10;;;;;;;;;;;;;;;;;;6251067;28;19924;-60
2023/08/14 19:29:10;;;;;;;;;;;;;;;;;;6256445;28;19929;-57
2023/08/14 19:32:11;;;;;;;;;;;;;;;;;;6253644;28;20698;-60
2023/08/14 19:35:11;;;;;;;;;;;;;;;;;;6251527;28;20862;-60
2023/08/14 19:38:12;;;;;;;;;;;;;;;;;;6251038;28;19928;-61
2023/08/14 19:41:12;;;;;;;;;;;;;;;;;;6250029;28;19970;-60
2023/08/14 19:44:13;;;;;;;;;;;;;;;;;;6253691;28;19925;-59
2023/08/14 19:47:14;;;;;;;;;;;;;;;;;;6254051;28;19927;-61
2023/08/14 19:50:15;;;;;;;;;;;;;;;;;;6252173;28;20355;-61
2023/08/14 19:53:16;;;;;;;;;;;;;;;;;;6252085;28;19928;-61
2023/08/14 19:56:16;;;;;;;;;;;;;;;;;;6252647;28;20684;-60
2023/08/14 19:59:17;;;;;;;;;;;;;;;;;;6254667;28;20368;-57
2023/08/14 20:02:17;;;;;;;;;;;;;;;;;;6253839;28;19968;-61
2023/08/14 20:05:18;;;;;;;;;;;;;;;;;;6250951;28;19925;-60
2023/08/14 20:08:23;;;;;;;;;;;;;;;;;;6251148;28;19932;-60
2023/08/14 20:11:23;;;;;;;;;;;;;;;;;;6254667;28;20510;-60
2023/08/14 20:14:24;;;;;;;;;;;;;;;;;;6250352;28;19928;-60
2023/08/14 20:17:24;;;;;;;;;;;;;;;;;;6242315;28;19929;-59
2023/08/14 20:20:25;;;;;;;;;;;;;;;;;;6242749;28;20330;-62
2023/08/14 20:23:27;;;;;;;;;;;;;;;;;;6237608;28;19929;-61
2023/08/14 20:26:28;;;;;;;;;;;;;;;;;;6237071;28;20591;-61
2023/08/14 20:29:28;;;;;;;;;;;;;;;;;;6245096;28;20358;-60
2023/08/14 20:32:29;;;;;;;;;;;;;;;;;;6235123;28;19925;-60
2023/08/14 20:35:29;;;;;;;;;;;;;;;;;;6245264;28;20516;-61